Flight Track Log - Related Links

Times and Time Zones

All times are in EDT time to prevent confusion due to time zone crossing. See the PDT4166 flight status page for this flight to view local times or setup timezone preferences in your user account.

Time Position Orientation Groundspeed Altitude Reporting Facility
EDT Latitude Longitude Course Direction KTS MPH feet Rate Location/Type
Tue 06:48:47 PM 43.1064 -76.1689 263° West 135 155 2,200  Level Boston Center
Tue 06:49:48 PM 43.0778 -76.2153 230° Southwest 171 197 3,400 1,082 Climbing Boston Center
Tue 06:50:00 PM 42.9295 -76.2887 226° Southwest  Level FlightAware Approximate
Tue 06:50:49 PM 43.0411 -76.2531 217° Southwest 170 196 4,400  Level Boston Center
Tue 06:51:00 PM 42.8779 -76.3610 226° Southwest  Level FlightAware Approximate
Tue 06:51:55 PM 42.9961 -76.2842 207° Southwest 169 194 5,600  Level Boston Center
Tue 06:52:00 PM 42.8325 -76.4341 216° Southwest  Level FlightAware Approximate
Tue 06:53:00 PM 42.7718 -76.4914 213° Southwest  Level FlightAware Approximate
Tue 06:53:28 PM 42.9303 -76.3192 201° Southwest 178 205 7,400  Level New York Center
Tue 06:54:30 PM 42.8872 -76.3494 207° Southwest 173 199 8,100 689 Climbing New York Center
Tue 06:55:30 PM 42.8397 -76.3878 211° Southwest 184 212 8,800 763 Climbing New York Center
Tue 06:56:28 PM 42.7961 -76.4292 215° Southwest 195 224 9,600 763 Climbing New York Center
Tue 06:57:28 PM 42.7481 -76.4758 215° Southwest 202 232 10,300 694 Climbing New York Center
Tue 06:58:29 PM 42.7025 -76.5169 214° Southwest 202 232 11,000 689 Climbing New York Center
Tue 06:59:30 PM 42.6544 -76.5606 214° Southwest 202 232 11,700 683 Climbing New York Center
Tue 07:00:32 PM 42.6047 -76.5983 209° Southwest 202 232 12,400 700 Climbing New York Center
Tue 07:01:30 PM 42.5572 -76.6364 211° Southwest 202 232 13,100 712 Climbing New York Center
Tue 07:02:30 PM 42.5094 -76.6769 212° Southwest 202 232 13,800 718 Climbing New York Center
Tue 07:03:27 PM 42.4597 -76.7147 209° Southwest 202 232 14,500 712 Climbing New York Center
Tue 07:04:28 PM 42.4139 -76.7528 212° Southwest 202 232 15,200 689 Climbing New York Center
Tue 07:05:29 PM 42.3606 -76.7394 170° South 191 220 15,900 397 Climbing New York Center
Tue 07:06:29 PM 42.3050 -76.6867 145° Southeast 201 231 16,000 50 Climbing New York Center
Tue 07:07:29 PM 42.2408 -76.6333 148° Southeast 237 273 16,000  Level New York Center
Tue 07:08:30 PM 42.1794 -76.5692 142° Southeast 268 308 16,000  Level New York Center
Tue 07:09:28 PM 42.1161 -76.5047 143° Southeast 283 326 16,000  Level New York Center
Tue 07:10:30 PM 42.0525 -76.4406 143° Southeast 288 331 16,000  Level New York Center
Tue 07:11:28 PM 41.9928 -76.3797 143° Southeast 293 337 16,000 -403 Level New York Center
Tue 07:12:29 PM 41.9172 -76.3064 144° Southeast 299 344 15,200 -744 Descending New York Center
Tue 07:13:29 PM 41.8472 -76.2419 146° Southeast 304 350 14,500 -645 Descending New York Center
Tue 07:14:30 PM 41.7772 -76.1781 146° Southeast 304 350 13,900 -694 Descending New York Center
Tue 07:15:30 PM 41.7175 -76.1175 143° Southeast 304 350 13,100 -974 Descending New York Center
Tue 07:16:27 PM 41.6475 -76.0536 146° Southeast 309 356 12,000 -1,220 Descending New York Center
Tue 07:17:28 PM 41.5778 -75.9817 142° Southeast 297 342 10,700 -1,240 Descending New York Center
Tue 07:18:28 PM 41.5139 -75.9211 145° Southeast 292 336 9,500 -1,190 Descending New York Center
Tue 07:19:29 PM 41.4475 -75.8636 147° Southeast 287 330 8,300 -744 Descending New York Center
Tue 07:20:29 PM 41.3875 -75.8064 144° Southeast 282 325 8,000 -149 Descending New York Center
Tue 07:21:30 PM 41.3272 -75.7550 147° Southeast 269 310 8,000  Level New York Center
Tue 07:22:29 PM 41.2600 -75.7222 160° South 259 298 8,000 -50 Level New York Center
Tue 07:23:29 PM 41.2008 -75.6906 158° South 247 284 7,900  Descending New York Center
Tue 07:24:29 PM 41.1375 -75.6583 159° South 241 277 8,000  Climbing New York Center
Tue 07:26:00 PM 41.0499 -75.5978 155° Southeast  Level FlightAware Approximate
Tue 07:30:58 PM 40.7000 -75.4500 189° South 247 284 7,900  Level Philadelphia TRACON
Tue 07:31:28 PM 40.6667 -75.4667 201° Southwest 257 296 7,400 -1,000 Descending Philadelphia TRACON
Tue 07:32:22 PM 40.6000 -75.4833 191° South 263 303 6,500 -1,000 Descending Philadelphia TRACON
Tue 07:33:00 PM 40.6227 -75.4667 180° South  Level FlightAware Approximate
Tue 07:33:22 PM 40.5333 -75.5000 191° South 260 299 5,500  Level Philadelphia TRACON
Tue 07:34:00 PM 40.5623 -75.4875 189° South  Level FlightAware Approximate
Tue 07:34:27 PM 40.4667 -75.5167 191° South 230 265 5,000  Level Philadelphia TRACON
Tue 07:35:00 PM 40.4982 -75.5004 189° South  Level FlightAware Approximate
Tue 07:35:28 PM 40.4000 -75.5333 191° South 230 265 5,000  Level Philadelphia TRACON
Tue 07:36:00 PM 40.4341 -75.5132 189° South  Level FlightAware Approximate
Tue 07:36:28 PM 40.3333 -75.5333 180° South 230 265 5,000  Level Philadelphia TRACON
Tue 07:37:22 PM 40.2833 -75.5500 194° South 230 265 5,000  Level Philadelphia TRACON
Tue 07:38:22 PM 40.2167 -75.5500 180° South 226 260 5,000  Level Philadelphia TRACON
Tue 07:39:22 PM 40.1667 -75.5333 166° South 232 267 5,000  Level Philadelphia TRACON
Tue 07:40:22 PM 40.1000 -75.5000 159° South 232 267 5,000  Level Philadelphia TRACON
Tue 07:41:28 PM 40.0833 -75.4167 105° East 223 257 5,000  Level Philadelphia TRACON
Tue 07:42:28 PM 40.0833 -75.3333 90° East 226 260 5,000  Level Philadelphia TRACON
Tue 07:43:28 PM 40.0667 -75.2500 105° East 227 261 5,000  Level Philadelphia TRACON
Tue 07:44:28 PM 40.0333 -75.2000 131° Southeast 236 272 5,000  Level Philadelphia TRACON
Tue 07:45:28 PM 39.9667 -75.1833 169° South 221 254 5,000 -143 Level Philadelphia TRACON
Tue 07:46:34 PM 39.9833 -75.1000 75° East 200 230 4,700 -476 Descending Philadelphia TRACON
Tue 07:47:34 PM 40.0000 -75.0333 72° East 194 223 4,000 -350 Descending Philadelphia TRACON
Tue 07:48:34 PM 40.0167 -74.9667 72° East 194 223 4,000 -450 Level Philadelphia TRACON
Tue 07:49:34 PM 39.9667 -74.9500 166° South 184 212 3,100 -500 Descending Philadelphia TRACON
Tue 07:50:34 PM 39.9333 -74.9833 217° Southwest 156 180 3,000 -100 Descending Philadelphia TRACON
Tue 07:51:34 PM 39.9167 -75.0500 252° West 158 182 2,900 -526 Descending Philadelphia TRACON
Tue 07:52:28 PM 39.9167 -75.1000 270° West 159 183 2,000 -1,000 Descending Philadelphia TRACON

Login

Don't have an account? Register now (free) for customized features, flight alerts, and more!